Stouffville Airport

CA-0635 · Ontario, Kanada

Historia METAR CA-0635 · Stouffville Airport

Poniżej widzisz METAR-y z ostatnich kilku dni. Wybierz rok, aby przeglądać starsze METAR-y, począwszy od roku 2007.

19 maja 2024

Czas Kod Pogoda Temp. Widoczność Sufit Wiatr METAR/SPECI
07:00
V
13 °C 9 mi - 020° 020° 2 kt METAR CYOO 191100Z AUTO 02002KT 9SM CLR 13/13 A2997 RMK SLP152
06:00
V
11 °C 7 mi - 020° 020° 3 kt METAR CYOO 191000Z AUTO 02003KT 7SM CLR 11/11 A2996 RMK SLP148
05:00
V
10 °C 7 mi - 030° 030° 4 kt METAR CYOO 190900Z AUTO 03004KT 7SM CLR 10/10 A2995 RMK SLP146
04:29
V
10 °C 6 mi - 360° 360° 3 kt METAR CYOO 190829Z AUTO 36003KT 6SM BR CLR 10/10 A2995 RMK SLP147
04:13
V
11 °C 5 mi - 360° 360° 2 kt METAR CYOO 190813Z AUTO 36002KT 5SM BR CLR 11/11 A2995 RMK SLP145
04:00
V
11 °C 9 mi - 360° 360° 0 kt METAR CYOO 190800Z AUTO 00000KT 9SM CLR 11/11 A2995 RMK SLP144
03:00
V
12 °C 6 mi - 350° 350° 3 kt METAR CYOO 190700Z AUTO 35003KT 6SM BR CLR 12/12 A2994 RMK SLP140
02:30
M
11 °C 4 mi - 020° 020° 2 kt METAR CYOO 190630Z AUTO 02002KT 4SM BR CLR 11/11 A2994 RMK SLP141
02:24
V
11 °C 6 mi - 360° 360° 4 kt METAR CYOO 190624Z AUTO 36004KT 6SM BR CLR 11/11 A2994 RMK SLP142
02:00
V
12 °C 6 mi - 350° 350° 2 kt METAR CYOO 190600Z AUTO 35002KT 6SM BR CLR 12/12 A2994 RMK SLP143
01:09
V
13 °C 5 mi - 300° 300° 3 kt METAR CYOO 190509Z AUTO 30003KT 5SM BR CLR 13/13 A2995 RMK SLP145
01:00
V
12 °C 6 mi - 270° 270° 2 kt METAR CYOO 190500Z AUTO 27002KT 6SM BR CLR 12/12 A2995 RMK SLP144
00:49
V
12 °C 6 mi - 360° 360° 0 kt METAR CYOO 190449Z AUTO 00000KT 6SM BR CLR 12/12 A2995 RMK SLP145
00:37
V
12 °C 5 mi - 310° 310° 3 kt METAR CYOO 190437Z AUTO 31003KT 5SM BR CLR 12/12 A2994 RMK SLP144
00:10
V
12 °C 6 mi - 010° 010° 2 kt METAR CYOO 190410Z AUTO 01002KT 6SM BR CLR 12/12 A2994 RMK SLP143
00:00
V
13 °C 7 mi - 030° 030° 2 kt METAR CYOO 190400Z AUTO 03002KT 7SM CLR 13/13 A2994 RMK SLP142
00:02
V
13 °C 5 mi - 030° 030° 2 kt METAR CYOO 190402Z AUTO 03002KT 5SM BR CLR 13/13 A2994 RMK SLP143

18 maja 2024

Czas Kod Pogoda Temp. Widoczność Sufit Wiatr METAR/SPECI
23:00
V
13 °C 9 mi - 330° 330° 2 kt METAR CYOO 190300Z AUTO 33002KT 9SM CLR 13/13 A2994 RMK SLP142
22:00
V
15 °C 9 mi - 360° 360° 0 kt METAR CYOO 190200Z AUTO 00000KT 9SM CLR 15/14 A2994 RMK SLP143
21:00
V
16 °C 9 mi - 130° 130° 3 kt METAR CYOO 190100Z AUTO 13003KT 9SM CLR 16/15 A2993 RMK SLP138 DENSITY ALT 700FT
20:00
V
18 °C 9 mi - 160° 160° 3 kt METAR CYOO 190000Z AUTO 16003KT 120V200 9SM CLR 18/15 A2993 RMK SLP138 DENSITY ALT 900FT
19:00
V
19 °C 9 mi - 150° 150° 6 kt METAR CYOO 182300Z AUTO 15006KT 9SM CLR 19/15 A2993 RMK SLP137 DENSITY ALT 1100FT
18:00
V
19 °C 9 mi - 170° 170° 5 kt METAR CYOO 182200Z AUTO 17005KT 130V220 9SM CLR 19/15 A2992 RMK SLP134 DENSITY ALT 1100FT
17:00
V
20 °C 9 mi 4.300 ft 150° 150° 7 kt METAR CYOO 182100Z AUTO 15007KT 100V180 9SM BKN043 20/16 A2992 RMK SLP135 DENSITY ALT 1200FT
16:15
V
19 °C 9 mi 4.500 ft 150° 150° 5 kt METAR CYOO 182015Z AUTO 15005KT 090V180 9SM SCT017 BKN045 19/16 A2993 RMK SLP138 DENSITY ALT 1100FT
16:00
M
19 °C 9 mi 1.700 ft 110° 110° 6 kt METAR CYOO 182000Z AUTO 11006KT 070V150 9SM BKN017 OVC040 19/16 A2993 RMK SLP138 DENSITY ALT 1100FT
15:51
M
19 °C 9 mi 1.700 ft 090° 090° 6 kt METAR CYOO 181951Z AUTO 09006KT 070V140 9SM BKN017 OVC040 19/16 A2993 RMK SLP137 DENSITY ALT 1100FT
15:40
V
19 °C 9 mi 4.000 ft 120° 120° 6 kt METAR CYOO 181940Z AUTO 12006KT 080V150 9SM FEW015 OVC040 19/16 A2993 RMK SLP138 DENSITY ALT 1100FT
15:00
M
20 °C 9 mi 1.700 ft 140° 140° 7 kt METAR CYOO 181900Z AUTO 14007KT 120V200 9SM OVC017 20/16 A2993 RMK SLP137 DENSITY ALT 1100FT
14:35
M
19 °C 9 mi 1.500 ft 100° 100° 4 kt METAR CYOO 181835Z AUTO 10004KT 060V150 9SM BKN015 OVC038 19/17 A2994 RMK SLP139 DENSITY ALT 1100FT
14:00
M
19 °C 9 mi 2.500 ft 110° 110° 7 kt METAR CYOO 181800Z AUTO 11007KT 9SM SCT015 BKN025 OVC032 19/16 A2994 RMK SLP142 DENSITY ALT 1000FT
13:55
M
19 °C 9 mi 2.700 ft 110° 110° 7 kt METAR CYOO 181755Z AUTO 11007KT 9SM SCT017 BKN027 BKN032 OVC041 19/16 A2995 RMK SLP143 DENSITY ALT 1000FT
13:44
M
19 °C 9 mi 1.700 ft 110° 110° 6 kt METAR CYOO 181744Z AUTO 11006KT 070V160 9SM BKN017 BKN025 OVC041 19/16 A2994 RMK SLP142 DENSITY ALT 1000FT
13:00
M
19 °C 9 mi 1.700 ft 100° 100° 8 kt METAR CYOO 181700Z AUTO 10008KT 070V140 9SM BKN017 OVC028 19/15 A2994 RMK SLP143 DENSITY ALT 1000FT
12:50
M
19 °C 9 mi 2.300 ft 130° 130° 7 kt METAR CYOO 181650Z AUTO 13007KT 050V160 9SM SCT017 BKN023 OVC028 19/16 A2994 RMK SLP142 DENSITY ALT 1100FT
12:00
M
19 °C 9 mi 1.700 ft 080° 080° 9 kt METAR CYOO 181600Z AUTO 08009KT 050V110 9SM BKN017 BKN030 OVC036 19/16 A2994 RMK SLP142 DENSITY ALT 1100FT
11:00
M
19 °C 9 mi 1.800 ft 060° 060° 6 kt METAR CYOO 181500Z AUTO 06006KT 040V140 9SM OVC018 19/16 A2994 RMK SLP140 DENSITY ALT 1000FT
10:00
M
18 °C 9 mi 1.600 ft 060° 060° 8 kt METAR CYOO 181400Z AUTO 06008KT 030V110 9SM OVC016 18/15 A2994 RMK SLP142 DENSITY ALT 900FT
09:10
M
18 °C 9 mi 1.200 ft 080° 080° 8 kt METAR CYOO 181310Z AUTO 08008KT 9SM BKN012 BKN034 18/15 A2993 RMK SLP137 DENSITY ALT 900FT
09:00
V
17 °C 9 mi - 070° 070° 8 kt METAR CYOO 181300Z AUTO 07008KT 9SM FEW012 SCT034 17/15 A2993 RMK SLP136 DENSITY ALT 900FT
08:57
V
17 °C 9 mi 3.400 ft 070° 070° 9 kt METAR CYOO 181257Z AUTO 07009KT 030V090 9SM SCT012 BKN034 17/15 A2993 RMK SLP136 DENSITY ALT 900FT
08:00
M
16 °C 9 mi 1.000 ft 050° 050° 5 kt METAR CYOO 181200Z AUTO 05005KT 010V080 9SM OVC010 16/15 A2992 RMK SLP134 DENSITY ALT 700FT
07:24
M
16 °C 9 mi 1.200 ft 010° 010° 3 kt METAR CYOO 181124Z AUTO 01003KT 9SM BKN012 OVC033 16/15 A2992 RMK SLP134 DENSITY ALT 700FT
07:00
V
15 °C 9 mi 3.300 ft 010° 010° 3 kt METAR CYOO 181100Z AUTO 01003KT 9SM FEW014 OVC033 15/15 A2992 RMK SLP134 DENSITY ALT 700FT
06:54
V
15 °C 9 mi 3.300 ft 360° 360° 4 kt METAR CYOO 181054Z AUTO 36004KT 9SM SCT014 OVC033 15/15 A2991 RMK SLP133
06:00
M
15 °C 9 mi 1.600 ft 360° 360° 2 kt METAR CYOO 181000Z AUTO 36002KT 9SM BKN016 OVC031 15/15 A2989 RMK SLP123 DENSITY ALT 700FT
05:00
M
16 °C 9 mi 1.900 ft 050° 050° 4 kt METAR CYOO 180900Z AUTO 05004KT 9SM OVC019 16/15 A2988 RMK SLP119 DENSITY ALT 800FT
04:00
M
16 °C 9 mi 1.100 ft 070° 070° 5 kt METAR CYOO 180800Z AUTO 07005KT 9SM OVC011 16/15 A2987 RMK SLP117 DENSITY ALT 700FT
03:56
M
16 °C 9 mi 1.100 ft 070° 070° 4 kt METAR CYOO 180756Z AUTO 07004KT 9SM OVC011 16/15 A2987 RMK SLP118 DENSITY ALT 700FT
03:00
I
16 °C 7 mi 900 ft 080° 080° 7 kt METAR CYOO 180700Z AUTO 08007KT 7SM -RA OVC009 16/15 A2986 RMK SLP114 DENSITY ALT 700FT
02:58
I
16 °C 6 mi 900 ft 090° 090° 7 kt METAR CYOO 180658Z AUTO 09007KT 6SM -RA BR OVC009 16/15 A2986 RMK SLP114 DENSITY ALT 700FT
02:34
I
16 °C 9 mi 900 ft 100° 100° 5 kt METAR CYOO 180634Z AUTO 10005KT 9SM OVC009 16/15 A2986 RMK SLP114 DENSITY ALT 800FT
02:00
M
16 °C 9 mi 1.500 ft 090° 090° 7 kt METAR CYOO 180600Z AUTO 09007KT 9SM OVC015 16/15 A2985 RMK SLP110 DENSITY ALT 800FT
01:00
V
15 °C 9 mi - 070° 070° 5 kt METAR CYOO 180500Z AUTO 07005KT 9SM SCT017 15/15 A2986 RMK SLP115 DENSITY ALT 700FT
01:04
M
15 °C 9 mi 2.000 ft 070° 070° 6 kt METAR CYOO 180504Z AUTO 07006KT 9SM SCT015 BKN020 15/15 A2986 RMK SLP116 DENSITY ALT 700FT
00:00
V
16 °C 9 mi 8.600 ft 080° 080° 4 kt METAR CYOO 180400Z AUTO 08004KT 9SM OVC086 16/15 A2988 RMK SLP119 DENSITY ALT 700FT

17 maja 2024

Czas Kod Pogoda Temp. Widoczność Sufit Wiatr METAR/SPECI
23:00
V
15 °C 9 mi 8.600 ft 070° 070° 3 kt METAR CYOO 180300Z AUTO 07003KT 9SM OVC086 15/15 A2988 RMK SLP119 DENSITY ALT 700FT
22:00
V
16 °C 9 mi 8.600 ft 110° 110° 3 kt METAR CYOO 180200Z AUTO 11003KT 9SM OVC086 16/15 A2988 RMK SLP120 DENSITY ALT 800FT
21:00
V
16 °C 9 mi 8.600 ft 110° 110° 3 kt METAR CYOO 180100Z AUTO 11003KT 9SM OVC086 16/16 A2987 RMK SLP118 DENSITY ALT 800FT
20:00
V
17 °C 9 mi 20.000 ft 100° 100° 3 kt METAR CYOO 180000Z AUTO 10003KT 9SM SCT081 SCT100 BKN200 BKN230 17/16 A2987 RMK SLP117 DENSITY ALT 900FT
19:00
V
17 °C 9 mi 9.600 ft Var Var 2 kt METAR CYOO 172300Z AUTO VRB02KT 9SM OVC096 17/16 A2987 RMK SLP116 DENSITY ALT 900FT
18:27
V
16 °C 9 mi 10.000 ft 110° 110° 3 kt METAR CYOO 172227Z AUTO 11003KT 090V160 9SM OVC100 16/15 A2985 RMK SLP109 DENSITY ALT 800FT
18:00
V
17 °C 9 mi 10.000 ft 130° 130° 6 kt METAR CYOO 172200Z AUTO 13006KT 9SM -RA OVC100 17/16 A2983 RMK PRESFR PCPN 0.5MM PAST HR SLP103 DENSITY ALT 900FT
17:00
V
16 °C 9 mi 10.000 ft 130° 130° 3 kt METAR CYOO 172100Z AUTO 13003KT 9SM -RA OVC100 16/15 A2987 RMK SLP117 DENSITY ALT 800FT
16:50
V
16 °C 6 mi 10.000 ft 120° 120° 5 kt METAR CYOO 172050Z AUTO 12005KT 6SM -RA BR OVC100 16/14 A2987 RMK SLP116 DENSITY ALT 800FT
16:42
V
17 °C 5 mi 10.000 ft 130° 130° 4 kt METAR CYOO 172042Z AUTO 13004KT 5SM -RA OVC100 17/14 A2987 RMK SLP118 DENSITY ALT 800FT
16:12
M
19 °C 9 mi 2.600 ft 180° 180° 6 kt METAR CYOO 172012Z AUTO 18006KT 140V200 9SM -RA BKN026 OVC096 19/14 A2987 RMK SLP118 DENSITY ALT 1100FT
16:00
V
19 °C 9 mi 9.100 ft 160° 160° 5 kt METAR CYOO 172000Z AUTO 16005KT 9SM SCT026 BKN091 19/14 A2987 RMK SLP118 DENSITY ALT 1200FT
15:37
V
20 °C 9 mi 8.100 ft Var Var 2 kt METAR CYOO 171937Z AUTO VRB02KT 9SM FEW032 SCT039 BKN081 BKN097 20/15 A2987 RMK SLP116 DENSITY ALT 1200FT
15:27
V
20 °C 9 mi 9.600 ft 200° 200° 3 kt METAR CYOO 171927Z AUTO 20003KT 120V260 9SM -RA SCT034 SCT076 BKN096 20/14 A2988 RMK SLP118 DENSITY ALT 1200FT
15:00
V
19 °C 9 mi 10.000 ft 360° 360° 0 kt METAR CYOO 171900Z AUTO 00000KT 9SM BKN100 BKN200 BKN230 19/14 A2987 RMK SLP117 DENSITY ALT 1200FT
14:00
V
19 °C 9 mi - 100° 100° 5 kt METAR CYOO 171800Z AUTO 10005KT 080V150 9SM SCT170 19/14 A2988 RMK SLP120 DENSITY ALT 1100FT
13:00
V
18 °C 9 mi - 120° 120° 6 kt METAR CYOO 171700Z AUTO 12006KT 9SM FEW120 18/14 A2989 RMK SLP125 DENSITY ALT 1000FT
12:00
V
17 °C 9 mi - 110° 110° 4 kt METAR CYOO 171600Z AUTO 11004KT 9SM FEW140 17/14 A2990 RMK SLP128 DENSITY ALT 900FT
11:00
V
17 °C 9 mi 16.000 ft 100° 100° 8 kt METAR CYOO 171500Z AUTO 10008KT 9SM BKN160 17/14 A2989 RMK SLP124 DENSITY ALT 900FT
10:00
V
18 °C 9 mi 18.000 ft 120° 120° 7 kt METAR CYOO 171400Z AUTO 12007KT 080V150 9SM OVC180 18/14 A2989 RMK SLP124 DENSITY ALT 900FT
09:00
V
17 °C 9 mi 18.000 ft 110° 110° 7 kt METAR CYOO 171300Z AUTO 11007KT 9SM OVC180 17/14 A2989 RMK SLP124 DENSITY ALT 800FT
08:00
V
15 °C 9 mi 4.600 ft 090° 090° 7 kt METAR CYOO 171200Z AUTO 09007KT 9SM BKN046 BKN180 15/14 A2988 RMK SLP119 DENSITY ALT 700FT
07:00
V
15 °C 9 mi 22.000 ft 090° 090° 6 kt METAR CYOO 171100Z AUTO 09006KT 9SM FEW180 BKN220 15/14 A2987 RMK SLP118
06:00
V
14 °C 9 mi 18.000 ft 100° 100° 5 kt METAR CYOO 171000Z AUTO 10005KT 9SM BKN180 OVC200 14/14 A2986 RMK SLP115
05:00
V
14 °C 9 mi 19.000 ft 090° 090° 4 kt METAR CYOO 170900Z AUTO 09004KT 9SM FEW044 BKN190 BKN230 14/13 A2986 RMK SLP114
04:00
V
14 °C 9 mi 5.500 ft Var Var 2 kt METAR CYOO 170800Z AUTO VRB02KT 9SM BKN055 OVC200 14/13 A2986 RMK SLP115
03:00
V
13 °C 9 mi 23.000 ft 040° 040° 2 kt METAR CYOO 170700Z AUTO 04002KT 9SM FEW042 BKN230 OVC250 13/13 A2986 RMK SLP113
02:00
V
13 °C 9 mi - 350° 350° 4 kt METAR CYOO 170600Z AUTO 35004KT 9SM SCT250 13/13 A2985 RMK SLP111
Zgłoś zmianę